createdAt,value
2023-02-05T00:00:23.874Z,100124.69
2023-02-05T00:02:26.955Z,100111.78
2023-02-05T00:04:30.062Z,100116.91
2023-02-05T00:06:33.139Z,100113.47
2023-02-05T00:08:37.512Z,100110.91
2023-02-05T00:10:40.525Z,100109.16
2023-02-05T00:12:43.551Z,100110.81
2023-02-05T00:14:46.625Z,100104.81
2023-02-05T00:16:49.741Z,100103.97
2023-02-05T00:18:53.269Z,100109.09
2023-02-05T00:20:56.245Z,100103.94
2023-02-05T00:22:59.468Z,100103.06
2023-02-05T00:25:03.908Z,100099.63
2023-02-05T00:27:08.097Z,100107.31
2023-02-05T00:29:11.356Z,100097.84
2023-02-05T00:31:17.903Z,100105.56
2023-02-05T00:33:22.389Z,100104.72
2023-02-05T00:35:25.625Z,100097.00
2023-02-05T00:37:29.032Z,100097.00
2023-02-05T00:39:32.113Z,100094.41
2023-02-05T00:41:36.783Z,100085.84
2023-02-05T00:43:42.548Z,100092.72
2023-02-05T00:45:45.645Z,100098.72
2023-02-05T00:47:48.626Z,100096.13
2023-02-05T00:49:51.561Z,100091.81
2023-02-05T00:51:54.582Z,100096.13
2023-02-05T00:53:57.663Z,100093.56
2023-02-05T00:56:00.903Z,100084.97
2023-02-05T00:58:05.500Z,100090.13
2023-02-05T01:00:09.859Z,100084.13
2023-02-05T01:02:12.975Z,100092.72
2023-02-05T01:04:15.980Z,100094.44
2023-02-05T01:06:18.996Z,100090.13
2023-02-05T01:08:22.270Z,100088.41
2023-02-05T01:10:26.369Z,100089.28
2023-02-05T01:12:29.421Z,100095.25
2023-02-05T01:14:34.082Z,100087.53
2023-02-05T01:16:37.508Z,100089.25
2023-02-05T01:18:40.584Z,100078.09
2023-02-05T01:20:44.822Z,100077.22
2023-02-05T01:22:47.769Z,100078.06
2023-02-05T01:24:51.697Z,100074.59
2023-02-05T01:26:56.150Z,100068.59
2023-02-05T01:28:59.092Z,100066.03
2023-02-05T01:31:03.557Z,100064.31
2023-02-05T01:33:06.641Z,100067.81
2023-02-05T01:35:10.384Z,100077.22
2023-02-05T01:37:13.411Z,100071.19
2023-02-05T01:39:16.378Z,100068.59
2023-02-05T01:41:19.322Z,100080.59
2023-02-05T01:43:22.424Z,100072.88
2023-02-05T01:46:01.648Z,100071.13
2023-02-05T01:48:08.897Z,100065.13
2023-02-05T01:50:12.013Z,100064.25
2023-02-05T01:52:17.380Z,100064.25
2023-02-05T01:54:21.903Z,100054.81
2023-02-05T01:56:27.351Z,100057.41
2023-02-05T01:58:35.478Z,100048.81
2023-02-05T02:00:38.490Z,100041.94
2023-02-05T02:02:41.774Z,100038.47
2023-02-05T02:04:49.420Z,100041.91
2023-02-05T02:06:52.960Z,100040.22
2023-02-05T02:08:56.870Z,100038.47
2023-02-05T02:11:01.254Z,100035.03
2023-02-05T02:13:05.153Z,100027.31
2023-02-05T02:15:11.524Z,100029.03
2023-02-05T02:17:16.231Z,100033.31
2023-02-05T02:19:24.450Z,100027.28
2023-02-05T02:22:00.131Z,100027.28
2023-02-05T02:24:14.984Z,100021.28
2023-02-05T02:26:29.706Z,100019.56
2023-02-05T02:28:37.378Z,100014.41
2023-02-05T02:30:43.564Z,100013.56
2023-02-05T02:32:51.869Z,100003.25
2023-02-05T02:34:57.716Z,100008.38
2023-02-05T02:37:04.675Z,100013.50
2023-02-05T02:39:12.450Z,100015.19
2023-02-05T02:41:20.751Z,100016.09
2023-02-05T02:43:26.589Z,100018.66
2023-02-05T02:45:35.371Z,100012.63
2023-02-05T02:47:43.449Z,100013.50
2023-02-05T02:49:50.724Z,100008.34
2023-02-05T02:51:54.821Z,100006.56
2023-02-05T02:54:00.210Z,99995.41
2023-02-05T02:56:05.786Z,99990.28
2023-02-05T02:58:15.388Z,99994.59
2023-02-05T03:00:22.391Z,99992.00
2023-02-05T03:02:29.884Z,99988.59
2023-02-05T03:04:36.372Z,99987.75
2023-02-05T03:06:40.949Z,99983.44
2023-02-05T03:08:50.704Z,99984.31
2023-02-05T03:10:57.347Z,99984.31
2023-02-05T03:13:01.239Z,99981.78
2023-02-05T03:15:25.474Z,99993.84
2023-02-05T03:17:30.630Z,99985.28
2023-02-05T03:19:34.949Z,99988.72
2023-02-05T03:21:43.171Z,99992.13
2023-02-05T03:23:46.967Z,99986.13
2023-02-05T03:25:50.665Z,99987.88
2023-02-05T03:27:59.130Z,99993.06
2023-02-05T03:30:06.505Z,99988.78
2023-02-05T03:32:18.690Z,99986.19
2023-02-05T03:34:33.694Z,99989.63
2023-02-05T03:36:42.298Z,99981.03
2023-02-05T03:38:55.040Z,99969.88
2023-02-05T03:41:00.953Z,99965.59
2023-02-05T03:43:13.232Z,99973.34
2023-02-05T03:45:39.341Z,99966.44
2023-02-05T03:47:52.024Z,99960.44
2023-02-05T03:50:02.282Z,99955.31
2023-02-05T03:52:10.894Z,99963.06
2023-02-05T03:54:18.950Z,99962.22
2023-02-05T03:56:25.482Z,99959.66
2023-02-05T03:58:33.873Z,99972.47
2023-02-05T04:00:37.031Z,99964.75
2023-02-05T04:02:40.001Z,99956.19
2023-02-05T04:04:43.154Z,99963.91
2023-02-05T04:06:50.722Z,99957.91
2023-02-05T04:08:54.173Z,99948.47
2023-02-05T04:10:58.977Z,99942.44
2023-02-05T04:13:02.524Z,99945.00
2023-02-05T04:15:08.988Z,99943.34
2023-02-05T04:17:13.984Z,99945.06
2023-02-05T04:19:18.393Z,99945.94
2023-02-05T04:21:21.903Z,99949.38
2023-02-05T04:23:27.420Z,99950.25
2023-02-05T04:25:30.447Z,99945.97
2023-02-05T04:27:36.920Z,99947.69
2023-02-05T04:29:41.722Z,99945.06
2023-02-05T04:31:45.167Z,99942.50
2023-02-05T04:33:48.848Z,99947.63
2023-02-05T04:35:53.817Z,99951.97
2023-02-05T04:37:57.315Z,99957.13
2023-02-05T04:40:01.773Z,99961.44
2023-02-05T04:42:05.208Z,99966.59
2023-02-05T04:44:08.238Z,99959.72
2023-02-05T04:46:11.850Z,99952.00
2023-02-05T04:48:14.825Z,99952.88
2023-02-05T04:50:18.403Z,99948.63
2023-02-05T04:52:21.441Z,99952.06
2023-02-05T04:54:24.449Z,99947.75
2023-02-05T04:56:29.000Z,99948.66
2023-02-05T04:58:32.206Z,99948.66
2023-02-05T05:00:35.197Z,99947.81
2023-02-05T05:02:38.561Z,99942.66
2023-02-05T05:04:43.280Z,99938.41
2023-02-05T05:06:46.290Z,99943.63
2023-02-05T05:08:49.226Z,99941.91
2023-02-05T05:10:52.213Z,99943.63
2023-02-05T05:12:56.685Z,99949.63
2023-02-05T05:14:59.672Z,99956.53
2023-02-05T05:17:02.718Z,99964.25
2023-02-05T05:19:05.851Z,99953.09
2023-02-05T05:21:09.455Z,99951.38
2023-02-05T05:23:12.427Z,99960.81
2023-02-05T05:25:15.639Z,99953.97
2023-02-05T05:27:19.038Z,99950.47
2023-02-05T05:29:23.428Z,99941.06
2023-02-05T05:31:26.907Z,99947.91
2023-02-05T05:33:30.031Z,99941.06
2023-02-05T05:35:33.266Z,99941.94
2023-02-05T05:37:36.330Z,99949.69
2023-02-05T05:39:57.069Z,99942.78
2023-02-05T05:42:17.617Z,99953.94
2023-02-05T05:44:20.736Z,99957.38
2023-02-05T05:46:29.041Z,99963.34
2023-02-05T05:48:32.116Z,99966.75
2023-02-05T05:50:35.192Z,99958.16
2023-02-05T05:52:38.232Z,99954.75
2023-02-05T05:54:41.359Z,99949.59
2023-02-05T05:56:45.117Z,99949.56
2023-02-05T05:58:48.803Z,99935.84
2023-02-05T06:00:51.780Z,99938.44
2023-02-05T06:02:56.258Z,99927.25
2023-02-05T06:04:59.609Z,99938.47
2023-02-05T06:07:02.505Z,99931.56
2023-02-05T06:09:05.593Z,99926.41
2023-02-05T06:11:08.743Z,99933.25
2023-02-05T06:13:11.972Z,99933.22
2023-02-05T06:15:15.394Z,99936.59
2023-02-05T06:17:18.520Z,99944.31
2023-02-05T06:19:23.196Z,99932.28
2023-02-05T06:21:26.212Z,99925.41
2023-02-05T06:23:29.291Z,99936.56
2023-02-05T06:25:32.459Z,99937.44
2023-02-05T06:27:36.390Z,99937.41
2023-02-05T06:29:39.700Z,99939.13
2023-02-05T06:31:42.826Z,99937.38
2023-02-05T06:33:45.931Z,99939.97
2023-02-05T06:35:50.381Z,99942.56
2023-02-05T06:37:53.511Z,99933.13
2023-02-05T06:39:57.107Z,99938.28
2023-02-05T06:42:00.159Z,99944.25
2023-02-05T06:44:03.977Z,99945.06
2023-02-05T06:46:07.154Z,99943.34
2023-02-05T06:48:10.328Z,99950.22
2023-02-05T06:50:13.485Z,99957.06
2023-02-05T06:52:18.028Z,99960.50
2023-02-05T06:54:21.102Z,99961.38
2023-02-05T06:56:24.387Z,99963.06
2023-02-05T06:58:27.388Z,99957.06
2023-02-05T07:00:32.357Z,99961.31
2023-02-05T07:02:35.620Z,99957.00
2023-02-05T07:04:38.812Z,99960.44
2023-02-05T07:06:42.045Z,99957.00
2023-02-05T07:08:47.681Z,99967.31
2023-02-05T07:10:50.669Z,99973.31
2023-02-05T07:12:53.688Z,99970.69
2023-02-05T07:14:56.645Z,99968.09
2023-02-05T07:16:59.576Z,99968.94
2023-02-05T07:19:02.575Z,99973.22
2023-02-05T07:21:06.904Z,99972.34
2023-02-05T07:23:09.935Z,99974.03
2023-02-05T07:25:14.472Z,99974.00
2023-02-05T07:27:20.852Z,99975.75
2023-02-05T07:29:24.031Z,99972.31
2023-02-05T07:31:27.236Z,99958.53
2023-02-05T07:33:30.577Z,99955.16
2023-02-05T07:35:35.348Z,99947.44
2023-02-05T07:37:39.433Z,99949.13
2023-02-05T07:39:42.808Z,99952.53
2023-02-05T07:41:47.131Z,99947.38
2023-02-05T07:43:58.254Z,99943.06
2023-02-05T07:46:02.546Z,99937.06
2023-02-05T07:48:05.706Z,99950.75
2023-02-05T07:50:09.295Z,99949.88
2023-02-05T07:52:12.313Z,99950.72
2023-02-05T07:54:15.859Z,99952.44
2023-02-05T07:56:21.656Z,99956.72
2023-02-05T07:58:26.061Z,99957.56
2023-02-05T08:00:29.048Z,99948.06
2023-02-05T08:02:32.113Z,99944.59
2023-02-05T08:04:35.139Z,99940.25
2023-02-05T08:06:38.220Z,99947.94
2023-02-05T08:08:41.170Z,99942.75
2023-02-05T08:10:44.124Z,99935.00
2023-02-05T08:12:47.543Z,99933.22
2023-02-05T08:14:52.686Z,99941.84
2023-02-05T08:16:55.643Z,99945.25
2023-02-05T08:18:58.685Z,99944.38
2023-02-05T08:21:01.765Z,99944.31
2023-02-05T08:23:05.431Z,99942.53
2023-02-05T08:25:13.113Z,99936.50
2023-02-05T08:27:16.059Z,99934.75
2023-02-05T08:29:18.998Z,99935.56
2023-02-05T08:31:23.611Z,99936.44
2023-02-05T08:33:26.791Z,99928.66
2023-02-05T08:35:29.848Z,99932.03
2023-02-05T08:37:32.923Z,99926.81
2023-02-05T08:39:36.239Z,99923.47
2023-02-05T08:41:39.179Z,99924.28
2023-02-05T08:43:42.842Z,99926.06
2023-02-05T08:45:47.886Z,99920.00
2023-02-05T08:47:52.362Z,99907.94
2023-02-05T08:49:55.483Z,99907.91
2023-02-05T08:51:58.690Z,99909.63
2023-02-05T08:54:01.748Z,99898.44
2023-02-05T08:56:06.417Z,99902.69
2023-02-05T08:58:09.527Z,99887.97
2023-02-05T09:00:14.996Z,99886.16
2023-02-05T09:02:18.171Z,99886.94
2023-02-05T09:04:23.535Z,99883.44
2023-02-05T09:06:26.609Z,99879.94
2023-02-05T09:08:31.222Z,99883.25
2023-02-05T09:10:34.613Z,99876.28
2023-02-05T09:12:37.896Z,99875.34
2023-02-05T09:14:41.642Z,99875.28
2023-02-05T09:16:44.701Z,99868.44
2023-02-05T09:18:47.778Z,99873.56
2023-02-05T09:20:54.189Z,99864.91
2023-02-05T09:22:57.216Z,99871.81
2023-02-05T09:25:00.360Z,99879.50
2023-02-05T09:27:06.497Z,99880.34
2023-02-05T09:29:09.948Z,99875.13
2023-02-05T09:31:14.891Z,99878.53
2023-02-05T09:33:18.075Z,99868.28
2023-02-05T09:35:21.074Z,99858.78
2023-02-05T09:37:25.454Z,99857.09
2023-02-05T09:40:02.296Z,99857.91
2023-02-05T09:41:57.154Z,99862.16
2023-02-05T09:44:03.530Z,99849.19
2023-02-05T09:46:11.566Z,99850.88
2023-02-05T09:48:49.816Z,99846.56
2023-02-05T09:50:53.384Z,99849.09
2023-02-05T09:53:00.973Z,99849.00
2023-02-05T09:55:07.699Z,99844.66
2023-02-05T09:57:14.219Z,99848.94
2023-02-05T09:59:18.944Z,99853.19
2023-02-05T10:01:24.546Z,99857.50
2023-02-05T10:03:29.406Z,99853.19
2023-02-05T10:05:39.481Z,99842.78
2023-02-05T10:07:49.380Z,99840.19
2023-02-05T10:10:18.570Z,99854.00
2023-02-05T10:12:31.084Z,99849.69
2023-02-05T10:14:43.849Z,99845.31
2023-02-05T10:17:02.437Z,99848.69
2023-02-05T10:19:18.803Z,99837.47
2023-02-05T10:21:35.817Z,99831.44
2023-02-05T10:23:53.526Z,99841.78
2023-02-05T10:26:06.533Z,99830.56
2023-02-05T10:28:21.772Z,99832.31
2023-02-05T10:30:29.676Z,99829.63
2023-02-05T10:32:42.934Z,99827.88
2023-02-05T10:34:54.817Z,99820.06
2023-02-05T10:36:57.888Z,99821.78
2023-02-05T10:39:01.653Z,99815.69
2023-02-05T10:41:14.549Z,99813.91
2023-02-05T10:43:21.474Z,99813.94
2023-02-05T10:45:27.424Z,99813.00
2023-02-05T10:47:44.184Z,99805.31
2023-02-05T10:49:49.467Z,99803.66
2023-02-05T10:51:53.273Z,99802.84
2023-02-05T10:53:56.355Z,99802.00
2023-02-05T10:56:00.724Z,99789.13
2023-02-05T10:58:24.890Z,99791.66
2023-02-05T11:00:28.155Z,99796.75
2023-02-05T11:02:34.442Z,99789.75
2023-02-05T11:04:41.701Z,99791.38
2023-02-05T11:06:47.326Z,99787.06
2023-02-05T11:08:50.365Z,99789.63
2023-02-05T11:10:54.859Z,99779.22
2023-02-05T11:13:00.526Z,99777.34
2023-02-05T11:15:05.178Z,99773.78
2023-02-05T11:17:10.645Z,99764.22
2023-02-05T11:19:21.110Z,99767.53
2023-02-05T11:21:24.410Z,99770.03
2023-02-05T11:23:30.968Z,99765.66
2023-02-05T11:25:34.177Z,99769.88
2023-02-05T11:27:38.534Z,99769.06
2023-02-05T11:29:41.627Z,99768.13
2023-02-05T11:31:46.085Z,99766.41
2023-02-05T11:33:49.497Z,99766.34
2023-02-05T11:35:54.993Z,99756.84
2023-02-05T11:38:02.384Z,99754.25
2023-02-05T11:40:06.289Z,99755.13
2023-02-05T11:42:10.766Z,99753.38
2023-02-05T11:44:19.204Z,99754.25
2023-02-05T11:46:23.882Z,99753.25
2023-02-05T11:48:38.720Z,99754.84
2023-02-05T11:50:45.309Z,99748.84
2023-02-05T11:52:48.499Z,99747.09
2023-02-05T11:54:51.592Z,99743.59
2023-02-05T11:57:02.686Z,99749.50
2023-02-05T11:59:23.027Z,99746.81
2023-02-05T12:01:29.158Z,99748.41
2023-02-05T12:03:34.950Z,99741.44
2023-02-05T12:05:41.524Z,99737.06
2023-02-05T12:07:48.280Z,99742.19
2023-02-05T12:09:55.634Z,99743.84
2023-02-05T12:12:18.347Z,99736.00
2023-02-05T12:14:25.746Z,99734.22
2023-02-05T12:16:41.680Z,99738.50
2023-02-05T12:18:50.687Z,99735.06
2023-02-05T12:21:06.446Z,99729.88
2023-02-05T12:23:25.433Z,99727.31
2023-02-05T12:25:34.199Z,99721.22
2023-02-05T12:27:47.651Z,99716.84
2023-02-05T12:30:05.846Z,99713.38
2023-02-05T12:32:19.252Z,99714.25
2023-02-05T12:34:31.923Z,99723.78
2023-02-05T12:36:58.371Z,99717.72
2023-02-05T12:39:09.277Z,99713.34
2023-02-05T12:41:20.964Z,99727.13
2023-02-05T12:43:31.953Z,99717.66
2023-02-05T12:45:44.366Z,99716.78
2023-02-05T12:48:10.292Z,99721.19
2023-02-05T12:50:35.380Z,99713.47
2023-02-05T12:52:49.798Z,99709.22
2023-02-05T12:54:58.049Z,99710.06
2023-02-05T12:57:04.405Z,99711.78
2023-02-05T12:59:13.744Z,99723.00
2023-02-05T13:01:20.276Z,99716.97
2023-02-05T13:03:28.556Z,99706.66
2023-02-05T13:05:35.037Z,99705.72
2023-02-05T13:07:40.938Z,99707.44
2023-02-05T13:09:48.627Z,99709.16
2023-02-05T13:11:56.716Z,99703.97
2023-02-05T13:14:03.937Z,99695.28
2023-02-05T13:16:10.161Z,99693.63
2023-02-05T13:18:16.366Z,99695.28
2023-02-05T13:20:43.553Z,99695.28
2023-02-05T13:23:11.405Z,99688.25
2023-02-05T13:25:38.744Z,99691.75
2023-02-05T13:28:02.417Z,99691.78
2023-02-05T13:30:06.744Z,99681.44
2023-02-05T13:32:15.870Z,99685.81
2023-02-05T13:34:19.520Z,99685.78
2023-02-05T13:36:57.038Z,99682.28
2023-02-05T13:39:16.166Z,99682.31
2023-02-05T13:41:30.746Z,99681.50
2023-02-05T13:43:45.396Z,99673.81
2023-02-05T13:46:27.911Z,99679.78
2023-02-05T13:49:24.244Z,99675.50
2023-02-05T13:51:41.428Z,99686.72
2023-02-05T13:53:53.067Z,99678.16
2023-02-05T13:56:27.637Z,99683.41
2023-02-05T13:58:32.436Z,99675.66
2023-02-05T14:00:35.660Z,99672.28
2023-02-05T14:02:41.305Z,99673.16
2023-02-05T14:04:53.321Z,99661.97
2023-02-05T14:07:02.647Z,99673.25
2023-02-05T14:09:08.002Z,99666.34
2023-02-05T14:11:13.010Z,99674.13
2023-02-05T14:13:24.123Z,99667.19
2023-02-05T14:15:38.614Z,99674.09
2023-02-05T14:17:56.125Z,99674.03
2023-02-05T14:20:01.042Z,99677.44
2023-02-05T14:22:08.236Z,99672.25
2023-02-05T14:24:28.054Z,99670.50
2023-02-05T14:26:49.130Z,99667.94
2023-02-05T14:28:53.134Z,99674.81
2023-02-05T14:30:58.888Z,99673.06
2023-02-05T14:33:03.405Z,99672.09
2023-02-05T14:35:11.690Z,99673.81
2023-02-05T14:37:41.752Z,99677.41
2023-02-05T14:39:44.782Z,99673.13
2023-02-05T14:41:52.623Z,99677.44
2023-02-05T14:43:57.695Z,99678.44
2023-02-05T14:46:05.061Z,99681.06
2023-02-05T14:48:20.253Z,99672.44
2023-02-05T14:50:25.652Z,99676.75
2023-02-05T14:52:31.483Z,99676.81
2023-02-05T14:54:46.074Z,99679.41
2023-02-05T14:56:52.424Z,99670.00
2023-02-05T14:59:00.474Z,99669.09
2023-02-05T15:01:46.330Z,99673.38
2023-02-05T15:03:49.668Z,99678.47
2023-02-05T15:05:56.758Z,99672.41
2023-02-05T15:08:07.766Z,99681.13
2023-02-05T15:10:16.372Z,99675.16
2023-02-05T15:12:38.722Z,99676.03
2023-02-05T15:14:44.539Z,99682.91
2023-02-05T15:16:47.959Z,99686.50
2023-02-05T15:18:52.338Z,99683.97
2023-02-05T15:20:57.160Z,99675.50
2023-02-05T15:23:07.050Z,99680.78
2023-02-05T15:25:27.563Z,99687.69
2023-02-05T15:27:39.625Z,99687.69
2023-02-05T15:29:44.113Z,99692.88
2023-02-05T15:31:49.665Z,99699.84
2023-02-05T15:34:07.999Z,99702.47
2023-02-05T15:36:18.861Z,99697.25
2023-02-05T15:38:28.198Z,99699.00
2023-02-05T15:40:32.620Z,99705.00
2023-02-05T15:42:39.820Z,99711.03
2023-02-05T15:44:42.898Z,99711.97
2023-02-05T15:46:46.087Z,99715.44
2023-02-05T15:48:49.299Z,99714.66
2023-02-05T15:50:54.838Z,99722.44
2023-02-05T15:52:58.500Z,99718.97
2023-02-05T15:55:02.967Z,99720.72
2023-02-05T15:57:07.333Z,99722.44
2023-02-05T15:59:16.680Z,99723.31
2023-02-05T16:01:27.197Z,99727.63
2023-02-05T16:03:33.420Z,99728.44
2023-02-05T16:05:37.964Z,99725.00
2023-02-05T16:07:43.432Z,99732.75
2023-02-05T16:09:48.477Z,99732.72
2023-02-05T16:11:52.402Z,99741.31
2023-02-05T16:14:13.712Z,99736.97
2023-02-05T16:16:23.218Z,99736.16
2023-02-05T16:18:34.258Z,99747.31
2023-02-05T16:20:42.126Z,99741.25
2023-02-05T16:22:46.653Z,99749.00
2023-02-05T16:24:50.850Z,99742.97
2023-02-05T16:26:58.657Z,99745.59
2023-02-05T16:29:07.700Z,99745.56
2023-02-05T16:31:20.411Z,99748.94
2023-02-05T16:33:29.029Z,99752.31
2023-02-05T16:35:35.361Z,99746.22
2023-02-05T16:37:38.456Z,99752.19
2023-02-05T16:39:44.928Z,99755.63
2023-02-05T16:42:02.436Z,99765.06
2023-02-05T16:44:07.563Z,99766.78
2023-02-05T16:46:32.776Z,99771.97
2023-02-05T16:48:37.927Z,99775.38
2023-02-05T16:50:44.634Z,99773.66
2023-02-05T16:52:57.684Z,99772.81
2023-02-05T16:55:06.760Z,99772.03
2023-02-05T16:57:12.988Z,99765.09
2023-02-05T16:59:20.333Z,99775.50
2023-02-05T17:01:24.099Z,99782.38
2023-02-05T17:03:30.483Z,99782.41
2023-02-05T17:05:35.366Z,99779.88
2023-02-05T17:07:38.429Z,99781.59
2023-02-05T17:09:41.811Z,99779.91
2023-02-05T17:11:45.052Z,99783.41
2023-02-05T17:13:49.083Z,99793.78
2023-02-05T17:15:52.123Z,99792.03
2023-02-05T17:17:56.332Z,99797.16
2023-02-05T17:20:07.573Z,99793.69
2023-02-05T17:22:21.734Z,99799.72
2023-02-05T17:24:27.003Z,99796.28
2023-02-05T17:26:32.018Z,99791.97
2023-02-05T17:28:38.132Z,99791.97
2023-02-05T17:30:42.465Z,99785.91
2023-02-05T17:32:46.872Z,99791.09
2023-02-05T17:34:50.174Z,99803.22
2023-02-05T17:36:54.671Z,99801.56
2023-02-05T17:38:57.748Z,99804.13
2023-02-05T17:41:14.641Z,99804.97
2023-02-05T17:43:17.866Z,99807.50
2023-02-05T17:45:22.859Z,99813.53
2023-02-05T17:47:25.918Z,99809.19
2023-02-05T17:49:29.086Z,99813.53
2023-02-05T17:51:32.106Z,99814.41
2023-02-05T17:53:36.496Z,99820.44
2023-02-05T17:55:40.284Z,99829.97
2023-02-05T17:57:44.090Z,99829.16
2023-02-05T17:59:47.786Z,99822.31
2023-02-05T18:01:51.538Z,99812.16
2023-02-05T18:03:54.608Z,99815.00
2023-02-05T18:05:58.334Z,99821.84
2023-02-05T18:08:03.120Z,99813.56
2023-02-05T18:10:08.861Z,99813.69
2023-02-05T18:12:11.942Z,99811.19
2023-02-05T18:14:14.934Z,99812.22
2023-02-05T18:16:18.134Z,99817.63
2023-02-05T18:18:23.894Z,99824.66
2023-02-05T18:20:26.969Z,99830.72
2023-02-05T18:22:29.997Z,99839.25
2023-02-05T18:24:33.082Z,99848.66
2023-02-05T18:26:38.264Z,99841.78
2023-02-05T18:28:41.282Z,99846.94
2023-02-05T18:30:44.511Z,99847.84
2023-02-05T18:32:47.658Z,99852.25
2023-02-05T18:34:51.062Z,99850.50
2023-02-05T18:36:54.783Z,99851.34
2023-02-05T18:38:58.627Z,99850.56
2023-02-05T18:41:10.059Z,99860.03
2023-02-05T18:43:14.586Z,99868.63
2023-02-05T18:45:17.924Z,99862.66
2023-02-05T18:47:21.001Z,99864.09
2023-02-05T18:49:24.108Z,99858.53
2023-02-05T18:51:27.528Z,99864.59
2023-02-05T18:53:30.710Z,99866.13
2023-02-05T18:55:35.554Z,99863.72
2023-02-05T18:57:38.625Z,99864.63
2023-02-05T18:59:44.521Z,99862.03
2023-02-05T19:01:47.970Z,99865.69
2023-02-05T19:03:52.769Z,99853.72
2023-02-05T19:05:55.909Z,99859.84
2023-02-05T19:07:59.782Z,99871.03
2023-02-05T19:10:02.881Z,99873.59
2023-02-05T19:12:06.165Z,99875.31
2023-02-05T19:14:12.268Z,99885.50
2023-02-05T19:16:17.940Z,99878.69
2023-02-05T19:18:21.099Z,99878.56
2023-02-05T19:20:24.415Z,99873.44
2023-02-05T19:22:27.592Z,99881.25
2023-02-05T19:24:30.770Z,99880.50
2023-02-05T19:26:35.187Z,99886.56
2023-02-05T19:28:38.379Z,99885.78
2023-02-05T19:30:41.634Z,99885.91
2023-02-05T19:32:46.099Z,99882.59
2023-02-05T19:34:49.236Z,99886.81
2023-02-05T19:36:52.585Z,99878.19
2023-02-05T19:38:55.815Z,99885.03
2023-02-05T19:41:06.542Z,99885.00
2023-02-05T19:43:10.054Z,99898.75
2023-02-05T19:45:13.119Z,99901.22
2023-02-05T19:47:16.553Z,99905.38
2023-02-05T19:49:22.382Z,99912.31
2023-02-05T19:51:25.377Z,99907.06
2023-02-05T19:53:30.455Z,99914.03
2023-02-05T19:55:33.909Z,99916.59
2023-02-05T19:57:37.057Z,99914.81
2023-02-05T19:59:40.364Z,99924.25
2023-02-05T20:01:44.756Z,99926.03
2023-02-05T20:03:48.090Z,99920.03
2023-02-05T20:05:52.839Z,99926.00
2023-02-05T20:07:55.849Z,99939.78
2023-02-05T20:09:58.887Z,99938.00
2023-02-05T20:12:02.259Z,99932.91
2023-02-05T20:14:05.616Z,99946.81
2023-02-05T20:16:11.777Z,99953.72
2023-02-05T20:18:15.174Z,99957.19
2023-02-05T20:20:32.607Z,99961.53
2023-02-05T20:22:37.610Z,99958.06
2023-02-05T20:24:40.679Z,99959.75
2023-02-05T20:26:44.494Z,99967.53
2023-02-05T20:29:06.338Z,99970.88
2023-02-05T20:31:26.787Z,99963.06
2023-02-05T20:33:30.048Z,99967.28
2023-02-05T20:35:35.960Z,99968.00
2023-02-05T20:37:40.341Z,99965.38
2023-02-05T20:39:44.758Z,99966.97
2023-02-05T20:41:49.156Z,99971.19
2023-02-05T20:43:52.289Z,99967.66
2023-02-05T20:45:55.275Z,99970.13
2023-02-05T20:47:58.349Z,99974.34
2023-02-05T20:50:01.335Z,99968.34
2023-02-05T20:52:04.477Z,99971.75
2023-02-05T20:54:08.934Z,99971.63
2023-02-05T20:56:13.211Z,99972.47
2023-02-05T20:58:17.686Z,99964.72
2023-02-05T21:00:24.578Z,99968.97
2023-02-05T21:02:27.973Z,99968.88
2023-02-05T21:04:31.663Z,99970.56
2023-02-05T21:06:37.235Z,99967.94
2023-02-05T21:08:40.591Z,99971.41
2023-02-05T21:10:44.899Z,99965.50
2023-02-05T21:12:48.043Z,99971.53
2023-02-05T21:14:51.084Z,99993.09
2023-02-05T21:16:54.156Z,99996.72
2023-02-05T21:18:57.366Z,99999.44
2023-02-05T21:21:07.391Z,100008.03
2023-02-05T21:23:10.543Z,100003.63
2023-02-05T21:25:13.701Z,100007.16
2023-02-05T21:27:21.749Z,100010.56
2023-02-05T21:29:24.993Z,100019.28
2023-02-05T21:31:33.721Z,100009.88
2023-02-05T21:33:37.394Z,100017.69
2023-02-05T21:35:40.493Z,100024.50
2023-02-05T21:37:43.478Z,100034.78
2023-02-05T21:39:46.806Z,100034.69
2023-02-05T21:41:51.086Z,100040.72
2023-02-05T21:43:56.883Z,100037.19
2023-02-05T21:46:02.559Z,100046.59
2023-02-05T21:48:06.871Z,100051.88
2023-02-05T21:50:10.395Z,100051.06
2023-02-05T21:52:13.386Z,100049.34
2023-02-05T21:54:16.623Z,100045.31
2023-02-05T21:56:19.694Z,100037.75
2023-02-05T21:58:23.084Z,100042.13
2023-02-05T22:00:27.471Z,100040.34
2023-02-05T22:02:30.704Z,100043.69
2023-02-05T22:04:33.866Z,100044.47
2023-02-05T22:06:37.412Z,100047.91
2023-02-05T22:08:41.588Z,100053.06
2023-02-05T22:10:44.757Z,100050.44
2023-02-05T22:12:47.844Z,100060.75
2023-02-05T22:14:50.853Z,100075.38
2023-02-05T22:16:55.395Z,100073.66
2023-02-05T22:18:59.357Z,100076.31
2023-02-05T22:21:07.085Z,100074.56
2023-02-05T22:23:10.115Z,100088.34
2023-02-05T22:25:13.352Z,100089.25
2023-02-05T22:27:16.617Z,100086.78
2023-02-05T22:29:21.033Z,100087.66
2023-02-05T22:31:24.483Z,100090.31
2023-02-05T22:33:29.256Z,100097.31
2023-02-05T22:35:32.483Z,100098.25
2023-02-05T22:37:36.714Z,100106.84
2023-02-05T22:39:39.693Z,100107.66
2023-02-05T22:41:43.505Z,100113.66
2023-02-05T22:43:46.706Z,100110.19
2023-02-05T22:45:49.748Z,100120.50
2023-02-05T22:47:52.731Z,100119.69
2023-02-05T22:49:57.042Z,100116.19
2023-02-05T22:52:00.173Z,100128.16
2023-02-05T22:54:03.561Z,100137.59
2023-02-05T22:56:08.612Z,100137.66
2023-02-05T22:58:11.812Z,100139.41
2023-02-05T23:00:15.806Z,100140.31
2023-02-05T23:02:18.863Z,100136.84
2023-02-05T23:04:22.051Z,100139.34
2023-02-05T23:06:28.791Z,100139.38
2023-02-05T23:08:31.949Z,100141.97
2023-02-05T23:10:35.102Z,100143.75
2023-02-05T23:12:38.185Z,100141.16
2023-02-05T23:14:46.456Z,100146.31
2023-02-05T23:16:50.127Z,100142.88
2023-02-05T23:18:53.827Z,100148.03
2023-02-05T23:20:59.871Z,100156.59
2023-02-05T23:23:04.256Z,100147.09
2023-02-05T23:25:08.221Z,100160.03
2023-02-05T23:27:13.652Z,100153.25
2023-02-05T23:29:17.111Z,100155.81
2023-02-05T23:31:21.062Z,100149.75
2023-02-05T23:33:24.116Z,100150.59
2023-02-05T23:35:27.228Z,100159.19
2023-02-05T23:37:30.168Z,100153.16
2023-02-05T23:39:34.491Z,100158.28
2023-02-05T23:41:37.603Z,100164.34
2023-02-05T23:43:40.663Z,100168.56
2023-02-05T23:45:43.636Z,100176.31
2023-02-05T23:47:46.667Z,100178.03
2023-02-05T23:49:49.634Z,100175.44
2023-02-05T23:51:54.115Z,100169.38
2023-02-05T23:53:57.057Z,100177.13
2023-02-05T23:56:02.033Z,100172.75
2023-02-05T23:58:06.555Z,100173.56
